Clarksville, NY (12041)

10:24 AM EDT on September 05, 2015 (GMT -0400)
APRSWXNET | | Change Station
CLOSE
Current Station
Personal Weather Station
Location: Voorheesville, NY
Elevation: 456 ft
Nearby Weather Stations

Elev 456 ft 42.62 °N, 73.97 °W | Updated 18 minutes ago

Clear
Clear
71 °F
Feels Like 75 °F
N
0
Wind Variable Wind from South
Gusts 0.0 mph

Today
High -- | Low -- °F
--% Chance of Precip.
Yesterday
High -- | Low -- °F
Precip. -- in
6:24 AM 7:23 PM
Waning Gibbous, 48% visible
Pressure 30.30 in
Visibility 10.0 miles
Clouds Clear
Heat Index 75 °F
Dew Point 59 °F
Humidity 66%
Rainfall in
Snow Depth Not available.
UV 4 out of 12
Pollen 8.70 out of 12
Air Quality Not available.
Flu Activity Not available.
METAR KALB 051351Z 19007KT 10SM CLR 22/13 A3030 RMK AO2 SLP261 T02170128
Pressure 30.30 in
Visibility 10.0 miles
Clouds Clear
Heat Index 75 °F
Dew Point 59 °F
Humidity 66%
Rainfall in
Snow Depth Not available.
UV 4 out of 12
Pollen 8.70 out of 12
Air Quality Not available.
Flu Activity Not available.
METAR KALB 051351Z 19007KT 10SM CLR 22/13 A3030 RMK AO2 SLP261 T02170128

10-Day Weather Forecast

×

Almanac

Astronomy

Sep. 05, 2015 Rise Set
Actual Time
Civil Twilight
Nautical Twilight
Astronomical Twilight
Moon
Length of Visible Light
Length of Day
Tomorrow will be .
, % of the Moon is Illuminated

Today's Extremes

State Highs State Lows

Community

WunderPhotos

Upload Photos

1,852,473 photos uploaded!

WunderBlogs® & News

Nearby

Air Quality

  Air Quality AQ Index Pollutant
Not available.

Snow Depth

Station Depth Elevation

Earthquake Activity

City Distance Mag. Time & Date
Minimum magnitude displayed is 2.5.

Coastal Water Temperatures

Place Temperature

Stations

Nearby Weather Stations

Station Location Temp. Windchill Dew Point Humidity Wind Precip. Elev Updated Type